Time;durP1;ratioP1;P1;durP2;ratioP2;P2;SDS_P1;SDS_P2;PMS_P1;PMS_P2;Temp;Humidity;BMP_temperature;BMP_pressure;BME280_temperature;BME280_humidity;BME280_pressure;Samples;Min_cycle;Max_cycle;Signal;HPM_P1;HPM_P2
2022/07/18 00:00:49;;;;;;;8.75;3.83;;;;;;;;;;5055658;28;20032;-76
2022/07/18 00:03:15;;;;;;;7.25;3.88;;;;;;;;;;5056740;28;20052;-75
2022/07/18 00:05:41;;;;;;;6.80;3.90;;;;;;;;;;5057720;28;20033;-76
2022/07/18 00:08:06;;;;;;;11.27;4.75;;;;;;;;;;5071080;28;20021;-77
2022/07/18 00:10:33;;;;;;;9.10;4.28;;;;;;;;;;5058678;28;20435;-76
2022/07/18 00:12:58;;;;;;;7.97;4.18;;;;;;;;;;5058949;28;20047;-77
2022/07/18 00:15:24;;;;;;;6.68;3.40;;;;;;;;;;5059448;28;20033;-76
2022/07/18 00:17:50;;;;;;;9.07;3.75;;;;;;;;;;5061375;28;20119;-76
2022/07/18 00:20:16;;;;;;;8.80;4.47;;;;;;;;;;5057762;28;20029;-77
2022/07/18 00:22:42;;;;;;;6.80;3.40;;;;;;;;;;5063435;28;20025;-75
2022/07/18 00:25:08;;;;;;;4.93;3.25;;;;;;;;;;5067177;28;20033;-77
2022/07/18 00:27:34;;;;;;;6.15;3.53;;;;;;;;;;5073828;28;20033;-76
2022/07/18 00:30:00;;;;;;;7.70;3.50;;;;;;;;;;5073636;28;20028;-77
2022/07/18 00:32:27;;;;;;;6.88;3.67;;;;;;;;;;5069766;28;20032;-75
2022/07/18 00:34:53;;;;;;;7.13;3.60;;;;;;;;;;5055865;28;20048;-75
2022/07/18 00:37:19;;;;;;;9.25;3.78;;;;;;;;;;5055348;28;20087;-77
2022/07/18 00:39:44;;;;;;;6.78;3.75;;;;;;;;;;5055602;28;20082;-77
2022/07/18 00:42:10;;;;;;;8.70;3.50;;;;;;;;;;5055863;28;20021;-78
2022/07/18 00:44:36;;;;;;;8.82;4.05;;;;;;;;;;5055640;28;20031;-76
2022/07/18 00:47:03;;;;;;;7.30;4.07;;;;;;;;;;5056687;28;20389;-77
2022/07/18 00:49:29;;;;;;;7.47;4.10;;;;;;;;;;5055167;28;20033;-77
2022/07/18 00:51:56;;;;;;;8.25;4.30;;;;;;;;;;5056245;28;20394;-77
2022/07/18 00:54:22;;;;;;;7.70;4.05;;;;;;;;;;5057631;28;20025;-75
2022/07/18 00:56:49;;;;;;;5.65;3.30;;;;;;;;;;5056470;28;20036;-77
2022/07/18 00:59:15;;;;;;;7.00;3.83;;;;;;;;;;5056790;28;20032;-77
2022/07/18 01:01:46;;;;;;;7.55;4.15;;;;;;;;;;5053917;28;20021;-78
2022/07/18 01:04:22;;;;;;;7.03;3.58;;;;;;;;;;5055452;28;20362;-77
2022/07/18 01:06:49;;;;;;;4.90;3.50;;;;;;;;;;5053877;28;20083;-77
2022/07/18 01:09:16;;;;;;;5.97;3.28;;;;;;;;;;5056574;28;20025;-77
2022/07/18 01:11:43;;;;;;;5.72;3.47;;;;;;;;;;5057639;28;20047;-77
2022/07/18 01:14:09;;;;;;;6.30;3.30;;;;;;;;;;5065963;28;20039;-77
2022/07/18 01:16:35;;;;;;;5.97;3.03;;;;;;;;;;5059800;28;20100;-77
2022/07/18 01:19:01;;;;;;;6.85;4.13;;;;;;;;;;5061962;28;20021;-77
2022/07/18 01:21:27;;;;;;;10.43;4.18;;;;;;;;;;5065698;28;20028;-77
2022/07/18 01:23:53;;;;;;;8.18;3.90;;;;;;;;;;5065814;28;20080;-77
2022/07/18 01:26:19;;;;;;;7.65;3.80;;;;;;;;;;5064387;28;20123;-77
2022/07/18 01:28:45;;;;;;;5.82;3.05;;;;;;;;;;5064520;28;20040;-77
2022/07/18 01:31:11;;;;;;;7.57;3.45;;;;;;;;;;5064770;28;20044;-77
2022/07/18 01:33:37;;;;;;;6.25;3.75;;;;;;;;;;5062068;28;20020;-77
2022/07/18 01:36:05;;;;;;;8.77;3.08;;;;;;;;;;5053333;28;20409;-77
2022/07/18 01:38:32;;;;;;;6.10;3.63;;;;;;;;;;5062208;28;20029;-77
2022/07/18 01:40:58;;;;;;;7.68;3.53;;;;;;;;;;5071607;28;20021;-76
2022/07/18 01:43:25;;;;;;;8.15;3.70;;;;;;;;;;5055394;28;20056;-77
2022/07/18 01:45:51;;;;;;;6.72;3.63;;;;;;;;;;5068207;28;20043;-78
2022/07/18 01:48:17;;;;;;;7.18;3.25;;;;;;;;;;5057497;28;20021;-77
2022/07/18 01:50:43;;;;;;;8.02;3.53;;;;;;;;;;5053953;28;20036;-78
2022/07/18 01:53:09;;;;;;;5.32;3.22;;;;;;;;;;5054283;28;20112;-77
2022/07/18 01:55:35;;;;;;;5.65;3.00;;;;;;;;;;5062249;28;20037;-76
2022/07/18 01:58:01;;;;;;;7.20;2.90;;;;;;;;;;5053954;28;20075;-77
2022/07/18 02:00:27;;;;;;;7.57;3.63;;;;;;;;;;5053690;28;20433;-77
2022/07/18 02:02:53;;;;;;;5.88;3.00;;;;;;;;;;5062318;28;20028;-77
2022/07/18 02:05:19;;;;;;;5.60;3.08;;;;;;;;;;5064389;28;20025;-77
2022/07/18 02:07:45;;;;;;;5.03;2.95;;;;;;;;;;5064244;28;20024;-77
2022/07/18 02:10:13;;;;;;;6.00;3.33;;;;;;;;;;5064581;28;20418;-77
2022/07/18 02:12:40;;;;;;;6.43;3.10;;;;;;;;;;5063373;28;20075;-77
2022/07/18 02:15:07;;;;;;;7.60;3.50;;;;;;;;;;5065257;28;20033;-77
2022/07/18 02:17:33;;;;;;;8.98;3.00;;;;;;;;;;5064509;28;20032;-77
2022/07/18 02:19:59;;;;;;;7.00;3.08;;;;;;;;;;5063224;28;20017;-77
2022/07/18 02:22:25;;;;;;;7.55;3.20;;;;;;;;;;5055308;28;20469;-77
2022/07/18 02:24:52;;;;;;;5.07;3.20;;;;;;;;;;5052895;28;20024;-77
2022/07/18 02:27:18;;;;;;;6.13;3.25;;;;;;;;;;5052535;28;20032;-77
2022/07/18 02:29:44;;;;;;;4.40;2.55;;;;;;;;;;5053063;28;20029;-77
2022/07/18 02:32:10;;;;;;;6.15;3.15;;;;;;;;;;5052458;28;20033;-77
2022/07/18 02:34:36;;;;;;;4.13;2.58;;;;;;;;;;5054233;28;20109;-76
2022/07/18 02:37:02;;;;;;;7.53;3.17;;;;;;;;;;5051301;28;20061;-76
2022/07/18 02:39:28;;;;;;;6.47;2.95;;;;;;;;;;5052597;28;20056;-78
2022/07/18 02:41:55;;;;;;;8.70;3.20;;;;;;;;;;5058988;28;20055;-76
2022/07/18 02:44:21;;;;;;;4.22;2.53;;;;;;;;;;5061086;28;20525;-78
2022/07/18 02:46:47;;;;;;;4.07;2.40;;;;;;;;;;5053610;28;20028;-76
2022/07/18 02:49:26;;;;;;;7.00;2.63;;;;;;;;;;5054305;28;20028;-75
2022/07/18 02:51:52;;;;;;;9.80;3.30;;;;;;;;;;5054456;28;20382;-75
2022/07/18 02:54:18;;;;;;;6.10;2.80;;;;;;;;;;5055563;28;20406;-77
2022/07/18 02:56:44;;;;;;;5.82;3.15;;;;;;;;;;5053717;28;20017;-77
2022/07/18 02:59:10;;;;;;;5.38;3.03;;;;;;;;;;5053614;28;20104;-77
2022/07/18 03:01:36;;;;;;;6.03;2.80;;;;;;;;;;5052386;28;20071;-76
2022/07/18 03:04:02;;;;;;;6.03;2.88;;;;;;;;;;5054775;28;20025;-77
2022/07/18 03:06:28;;;;;;;5.32;2.85;;;;;;;;;;5053023;28;20029;-77
2022/07/18 03:08:55;;;;;;;7.63;4.20;;;;;;;;;;5052421;28;20129;-77
2022/07/18 03:11:21;;;;;;;4.65;3.05;;;;;;;;;;5052116;28;20060;-76
2022/07/18 03:13:47;;;;;;;9.27;3.47;;;;;;;;;;5052697;28;20045;-77
2022/07/18 03:16:13;;;;;;;5.63;2.90;;;;;;;;;;5053336;28;20025;-76
2022/07/18 03:18:39;;;;;;;9.90;3.47;;;;;;;;;;5054677;28;20036;-76
2022/07/18 03:21:05;;;;;;;7.25;3.13;;;;;;;;;;5053030;28;20457;-76
2022/07/18 03:23:31;;;;;;;4.90;2.80;;;;;;;;;;5054526;28;20429;-76
2022/07/18 03:25:57;;;;;;;4.82;2.83;;;;;;;;;;5061106;28;20393;-77
2022/07/18 03:28:23;;;;;;;8.90;4.05;;;;;;;;;;5078799;28;20040;-76
2022/07/18 03:30:49;;;;;;;6.10;3.15;;;;;;;;;;5066834;28;20040;-77
2022/07/18 03:33:15;;;;;;;10.95;3.55;;;;;;;;;;5056449;28;20092;-77
2022/07/18 03:35:41;;;;;;;6.65;3.50;;;;;;;;;;5056174;28;20063;-76
2022/07/18 03:38:07;;;;;;;8.73;3.72;;;;;;;;;;5056404;28;20029;-77
2022/07/18 03:40:33;;;;;;;8.75;4.13;;;;;;;;;;5056666;28;20029;-76
2022/07/18 03:42:59;;;;;;;8.00;3.83;;;;;;;;;;5055603;28;20446;-76
2022/07/18 03:45:25;;;;;;;6.35;3.10;;;;;;;;;;5055131;28;20025;-76
2022/07/18 03:47:51;;;;;;;7.30;3.53;;;;;;;;;;5055876;28;20033;-75
2022/07/18 03:50:17;;;;;;;8.05;3.65;;;;;;;;;;5055899;28;20102;-76
2022/07/18 03:52:43;;;;;;;7.53;3.50;;;;;;;;;;5055867;28;20029;-76
2022/07/18 03:55:09;;;;;;;6.32;2.92;;;;;;;;;;5054714;28;20029;-75
2022/07/18 03:57:35;;;;;;;6.32;3.40;;;;;;;;;;5053849;28;20398;-76
2022/07/18 04:00:01;;;;;;;9.40;3.70;;;;;;;;;;5061604;28;20013;-74
2022/07/18 04:02:27;;;;;;;9.68;4.32;;;;;;;;;;5069458;28;20044;-76
2022/07/18 04:04:53;;;;;;;8.38;3.90;;;;;;;;;;5055689;28;20021;-76
2022/07/18 04:07:19;;;;;;;7.10;3.80;;;;;;;;;;5060226;28;20033;-77
2022/07/18 04:09:45;;;;;;;9.30;3.60;;;;;;;;;;5061053;28;20063;-77
2022/07/18 04:12:11;;;;;;;8.68;3.67;;;;;;;;;;5060390;28;20025;-77
2022/07/18 04:14:37;;;;;;;9.15;3.47;;;;;;;;;;5061197;28;20039;-76
2022/07/18 04:17:03;;;;;;;7.88;4.28;;;;;;;;;;5056748;28;20375;-76
2022/07/18 04:19:29;;;;;;;9.85;4.13;;;;;;;;;;5054778;28;20479;-76
2022/07/18 04:21:54;;;;;;;10.93;3.92;;;;;;;;;;5053393;28;20394;-77
2022/07/18 04:24:20;;;;;;;8.80;4.20;;;;;;;;;;5055580;28;20440;-76
2022/07/18 04:26:46;;;;;;;8.30;4.57;;;;;;;;;;5054946;28;20424;-74
2022/07/18 04:29:12;;;;;;;9.35;3.88;;;;;;;;;;5054830;28;20021;-75
2022/07/18 04:31:38;;;;;;;6.95;3.75;;;;;;;;;;5055051;28;20032;-75
2022/07/18 04:34:04;;;;;;;9.30;4.15;;;;;;;;;;5054486;28;20176;-75
2022/07/18 04:36:30;;;;;;;10.15;3.95;;;;;;;;;;5054176;28;20021;-75
2022/07/18 04:38:56;;;;;;;15.30;4.95;;;;;;;;;;5056997;28;20029;-76
2022/07/18 04:41:24;;;;;;;14.65;4.97;;;;;;;;;;5057036;28;20151;-76
2022/07/18 04:43:50;;;;;;;9.07;4.22;;;;;;;;;;5054042;28;20017;-76
2022/07/18 04:46:16;;;;;;;8.35;4.55;;;;;;;;;;5054131;28;20393;-75
2022/07/18 04:48:42;;;;;;;8.35;3.90;;;;;;;;;;5052975;28;20024;-76
2022/07/18 04:51:08;;;;;;;13.25;6.50;;;;;;;;;;5054353;28;20036;-75
2022/07/18 04:53:34;;;;;;;8.20;4.22;;;;;;;;;;5055508;28;20025;-77
2022/07/18 04:56:00;;;;;;;11.68;4.70;;;;;;;;;;5056800;28;20119;-76
2022/07/18 04:58:26;;;;;;;10.52;4.47;;;;;;;;;;5053715;28;20036;-76
2022/07/18 05:00:52;;;;;;;10.65;4.38;;;;;;;;;;5054463;28;20100;-75
2022/07/18 05:03:19;;;;;;;9.48;4.72;;;;;;;;;;5054972;28;20025;-76
2022/07/18 05:05:45;;;;;;;9.93;4.70;;;;;;;;;;5055384;28;20025;-77
2022/07/18 05:08:12;;;;;;;9.75;5.13;;;;;;;;;;5054759;28;20036;-78
2022/07/18 05:10:38;;;;;;;11.73;4.38;;;;;;;;;;5053934;28;20107;-76
2022/07/18 05:13:04;;;;;;;16.80;5.18;;;;;;;;;;5081028;22;20208;-79
2022/07/18 05:15:30;;;;;;;9.13;4.70;;;;;;;;;;5061431;28;20025;-80
2022/07/18 05:17:56;;;;;;;11.55;5.63;;;;;;;;;;5045478;28;20334;-78
2022/07/18 05:20:23;;;;;;;9.23;4.70;;;;;;;;;;5049694;28;20031;-78
2022/07/18 05:22:49;;;;;;;11.13;4.95;;;;;;;;;;5048723;28;20050;-78
2022/07/18 05:25:15;;;;;;;15.40;5.35;;;;;;;;;;5066669;28;20036;-77
2022/07/18 05:27:41;;;;;;;12.77;4.90;;;;;;;;;;5066966;28;20021;-78
2022/07/18 05:30:08;;;;;;;13.32;4.95;;;;;;;;;;5066534;28;20032;-78
2022/07/18 05:32:34;;;;;;;11.73;5.75;;;;;;;;;;5065188;28;20025;-77
2022/07/18 05:35:00;;;;;;;9.50;5.13;;;;;;;;;;5060260;28;20036;-78
2022/07/18 05:37:26;;;;;;;10.52;4.60;;;;;;;;;;5060270;28;20033;-77
2022/07/18 05:39:52;;;;;;;11.68;5.25;;;;;;;;;;5061119;28;20025;-76
2022/07/18 05:42:19;;;;;;;11.85;5.38;;;;;;;;;;5060177;28;20032;-78
2022/07/18 05:44:45;;;;;;;13.18;4.95;;;;;;;;;;5062170;28;20040;-78
2022/07/18 05:47:11;;;;;;;14.77;5.07;;;;;;;;;;5063556;28;20029;-78
2022/07/18 05:49:37;;;;;;;9.13;4.57;;;;;;;;;;5063099;28;20032;-80
2022/07/18 05:52:03;;;;;;;11.10;5.63;;;;;;;;;;5065288;28;20033;-78
2022/07/18 05:54:29;;;;;;;10.68;4.78;;;;;;;;;;5069120;28;20052;-77
2022/07/18 05:56:55;;;;;;;9.48;5.00;;;;;;;;;;5069035;28;20032;-78
2022/07/18 05:59:21;;;;;;;10.90;5.75;;;;;;;;;;5063870;28;20085;-75
2022/07/18 06:01:47;;;;;;;8.80;4.90;;;;;;;;;;5075296;28;20032;-77
2022/07/18 06:04:13;;;;;;;10.35;5.43;;;;;;;;;;5070695;28;20025;-77
2022/07/18 06:06:39;;;;;;;10.82;5.60;;;;;;;;;;5059615;28;20036;-77
2022/07/18 06:09:06;;;;;;;15.57;5.38;;;;;;;;;;5058122;28;20025;-77
2022/07/18 06:11:32;;;;;;;11.88;5.18;;;;;;;;;;5058163;28;20036;-79
2022/07/18 06:13:58;;;;;;;9.88;5.50;;;;;;;;;;5059921;28;20084;-80
2022/07/18 06:16:24;;;;;;;10.27;5.47;;;;;;;;;;5059875;28;20363;-76
2022/07/18 06:18:50;;;;;;;14.82;6.00;;;;;;;;;;5063502;28;20044;-80
2022/07/18 06:21:16;;;;;;;13.80;6.05;;;;;;;;;;5065390;28;20029;-78
2022/07/18 06:23:42;;;;;;;13.70;6.10;;;;;;;;;;5068307;28;20047;-77
2022/07/18 06:26:08;;;;;;;15.25;5.95;;;;;;;;;;5068880;28;20032;-77
2022/07/18 06:28:34;;;;;;;12.23;6.38;;;;;;;;;;5068993;28;20025;-77
2022/07/18 06:31:01;;;;;;;13.10;6.13;;;;;;;;;;5066209;28;20054;-76
2022/07/18 06:33:27;;;;;;;16.50;6.40;;;;;;;;;;5067798;28;20055;-78
2022/07/18 06:35:53;;;;;;;9.50;5.65;;;;;;;;;;5062589;28;20073;-78
2022/07/18 06:38:19;;;;;;;11.93;6.28;;;;;;;;;;5059952;28;20048;-79
2022/07/18 06:40:45;;;;;;;14.30;7.15;;;;;;;;;;5060728;28;20025;-79
2022/07/18 06:43:11;;;;;;;17.23;6.57;;;;;;;;;;5058380;28;20029;-78
2022/07/18 06:45:37;;;;;;;12.10;6.85;;;;;;;;;;5059714;28;20021;-80
2022/07/18 06:48:03;;;;;;;12.80;6.65;;;;;;;;;;5058846;28;20033;-79
2022/07/18 06:50:29;;;;;;;10.65;5.90;;;;;;;;;;5067566;28;20358;-78
2022/07/18 06:52:55;;;;;;;12.85;6.38;;;;;;;;;;5073734;28;20035;-77
2022/07/18 06:55:21;;;;;;;14.35;6.63;;;;;;;;;;5059719;28;20021;-80
2022/07/18 06:57:47;;;;;;;15.48;7.05;;;;;;;;;;5061561;28;20033;-78
2022/07/18 07:00:14;;;;;;;14.07;7.00;;;;;;;;;;5064992;28;20029;-78
2022/07/18 07:02:41;;;;;;;14.27;7.53;;;;;;;;;;5065784;28;20021;-79
2022/07/18 07:05:08;;;;;;;15.43;6.85;;;;;;;;;;5067157;28;20385;-78
2022/07/18 07:07:33;;;;;;;17.80;7.38;;;;;;;;;;5074032;28;20036;-77
2022/07/18 07:09:59;;;;;;;16.35;7.72;;;;;;;;;;5072009;28;20084;-78
2022/07/18 07:12:25;;;;;;;13.95;6.85;;;;;;;;;;5067282;28;20041;-79
2022/07/18 07:14:51;;;;;;;12.13;7.38;;;;;;;;;;5063720;28;20039;-79
2022/07/18 07:17:18;;;;;;;15.68;6.88;;;;;;;;;;5064017;28;20017;-76
2022/07/18 07:19:44;;;;;;;14.13;7.60;;;;;;;;;;5061577;28;20021;-78
2022/07/18 07:22:10;;;;;;;12.30;7.03;;;;;;;;;;5063007;28;20499;-78
2022/07/18 07:24:38;;;;;;;10.15;6.63;;;;;;;;;;5063782;28;20021;-78
2022/07/18 07:27:04;;;;;;;12.00;7.07;;;;;;;;;;5066697;28;20025;-79
2022/07/18 07:29:30;;;;;;;15.65;7.68;;;;;;;;;;5069880;28;20076;-78
2022/07/18 07:31:56;;;;;;;14.75;8.05;;;;;;;;;;5076223;28;20075;-77
2022/07/18 07:34:22;;;;;;;16.98;7.50;;;;;;;;;;5072961;28;20025;-77
2022/07/18 07:36:48;;;;;;;13.50;7.45;;;;;;;;;;5079989;28;20017;-75
2022/07/18 07:39:14;;;;;;;16.88;8.45;;;;;;;;;;5079999;28;20017;-75
2022/07/18 07:41:40;;;;;;;15.07;7.93;;;;;;;;;;5080476;28;20021;-75
2022/07/18 07:44:06;;;;;;;13.07;8.13;;;;;;;;;;5079843;28;20028;-75
2022/07/18 07:46:32;;;;;;;16.30;8.23;;;;;;;;;;5078981;28;20009;-75
2022/07/18 07:48:58;;;;;;;13.45;8.07;;;;;;;;;;5069186;28;20033;-78
2022/07/18 07:51:24;;;;;;;15.80;8.23;;;;;;;;;;5063115;28;20057;-79
2022/07/18 07:53:50;;;;;;;14.23;7.90;;;;;;;;;;5063332;28;20367;-78
2022/07/18 07:56:18;;;;;;;16.60;8.55;;;;;;;;;;5062148;28;20086;-77
2022/07/18 07:58:45;;;;;;;18.45;7.70;;;;;;;;;;5062250;28;20033;-77
2022/07/18 08:01:11;;;;;;;14.48;6.85;;;;;;;;;;5063130;28;20101;-77
2022/07/18 08:03:38;;;;;;;14.10;6.80;;;;;;;;;;5061055;28;20024;-78
2022/07/18 08:06:04;;;;;;;16.73;6.30;;;;;;;;;;5064504;28;20029;-76
2022/07/18 08:08:30;;;;;;;11.02;5.90;;;;;;;;;;5058711;28;20053;-75
2022/07/18 08:10:56;;;;;;;11.32;6.38;;;;;;;;;;5057197;28;20036;-76
2022/07/18 08:13:22;;;;;;;11.27;5.70;;;;;;;;;;5059318;28;20557;-76
2022/07/18 08:15:48;;;;;;;8.95;5.40;;;;;;;;;;5059171;28;20032;-77
2022/07/18 08:18:14;;;;;;;9.18;5.20;;;;;;;;;;5060264;28;20040;-76
2022/07/18 08:20:40;;;;;;;15.02;5.35;;;;;;;;;;5059068;28;20052;-77
2022/07/18 08:23:07;;;;;;;8.50;5.00;;;;;;;;;;5062571;28;20021;-78
2022/07/18 08:25:34;;;;;;;13.95;4.50;;;;;;;;;;5067032;28;20017;-77
2022/07/18 08:28:01;;;;;;;13.63;5.15;;;;;;;;;;5066991;28;20692;-78
2022/07/18 08:30:27;;;;;;;10.15;4.47;;;;;;;;;;5069996;28;20032;-79
2022/07/18 08:32:53;;;;;;;11.38;4.25;;;;;;;;;;5069935;28;20035;-77
2022/07/18 08:35:19;;;;;;;12.57;5.30;;;;;;;;;;5077999;28;20053;-75
2022/07/18 08:37:45;;;;;;;8.60;4.25;;;;;;;;;;5077986;28;20047;-75
2022/07/18 08:40:11;;;;;;;10.73;5.38;;;;;;;;;;5076470;28;20066;-76
2022/07/18 08:42:38;;;;;;;9.77;4.82;;;;;;;;;;5076500;28;20089;-76
2022/07/18 08:45:04;;;;;;;12.05;4.63;;;;;;;;;;5074523;28;20021;-76
2022/07/18 08:47:31;;;;;;;11.82;5.00;;;;;;;;;;5074145;28;20009;-78
2022/07/18 08:49:57;;;;;;;10.25;4.32;;;;;;;;;;5074944;28;20024;-76
2022/07/18 08:52:23;;;;;;;10.18;4.63;;;;;;;;;;5075324;28;20025;-75
2022/07/18 08:54:49;;;;;;;12.25;4.85;;;;;;;;;;5069885;28;20029;-77
2022/07/18 08:57:16;;;;;;;10.60;4.97;;;;;;;;;;5062396;28;20044;-76
2022/07/18 08:59:42;;;;;;;10.50;5.25;;;;;;;;;;5060293;28;20036;-77
2022/07/18 09:02:08;;;;;;;15.93;5.35;;;;;;;;;;5059991;28;20013;-77
2022/07/18 09:04:44;;;;;;;8.43;4.57;;;;;;;;;;5060782;28;20029;-77
2022/07/18 09:07:11;;;;;;;13.00;4.97;;;;;;;;;;5059429;28;20031;-79
2022/07/18 09:09:37;;;;;;;10.23;5.70;;;;;;;;;;5059900;28;20029;-77
2022/07/18 09:12:05;;;;;;;9.15;4.95;;;;;;;;;;5072580;28;20028;-76
2022/07/18 09:14:33;;;;;;;9.52;5.25;;;;;;;;;;5069700;28;20624;-76
2022/07/18 09:17:02;;;;;;;8.63;5.00;;;;;;;;;;5076441;28;20029;-76
2022/07/18 09:19:28;;;;;;;11.98;5.50;;;;;;;;;;5068780;28;20048;-77
2022/07/18 09:21:54;;;;;;;11.48;5.18;;;;;;;;;;5057171;28;20052;-78
2022/07/18 09:24:20;;;;;;;10.38;5.00;;;;;;;;;;5059795;28;20029;-78
2022/07/18 09:26:49;;;;;;;11.65;5.53;;;;;;;;;;5066282;28;20024;-79
2022/07/18 09:29:16;;;;;;;12.18;6.95;;;;;;;;;;5067062;28;20029;-78
2022/07/18 09:31:51;;;;;;;21.17;5.10;;;;;;;;;;5059743;28;20098;-77
2022/07/18 09:34:34;;;;;;;11.35;5.05;;;;;;;;;;5061783;28;20024;-77
2022/07/18 09:37:00;;;;;;;9.25;5.18;;;;;;;;;;5060209;28;20036;-76
2022/07/18 09:39:26;;;;;;;9.52;5.32;;;;;;;;;;5063989;28;20028;-77
2022/07/18 09:41:52;;;;;;;9.10;4.90;;;;;;;;;;5064040;28;20025;-77
2022/07/18 09:44:19;;;;;;;10.20;4.65;;;;;;;;;;5061223;28;20032;-79
2022/07/18 09:47:01;;;;;;;13.30;4.90;;;;;;;;;;5064940;28;20021;-79
2022/07/18 09:49:31;;;;;;;10.77;5.25;;;;;;;;;;5067208;28;20077;-77
2022/07/18 09:52:07;;;;;;;11.10;5.00;;;;;;;;;;5068552;28;20021;-77
2022/07/18 09:54:43;;;;;;;10.43;4.80;;;;;;;;;;5062729;28;20025;-79
2022/07/18 09:57:10;;;;;;;12.88;5.05;;;;;;;;;;5069531;28;20036;-77
2022/07/18 09:59:37;;;;;;;12.75;4.68;;;;;;;;;;5061147;28;20411;-80
2022/07/18 10:02:03;;;;;;;9.27;4.53;;;;;;;;;;5059610;28;20056;-76
2022/07/18 10:04:29;;;;;;;7.25;4.18;;;;;;;;;;5060433;28;20024;-77
2022/07/18 10:06:56;;;;;;;11.55;4.50;;;;;;;;;;5073310;28;20012;-76
2022/07/18 10:09:21;;;;;;;8.55;4.75;;;;;;;;;;5076130;28;20033;-75
2022/07/18 10:11:47;;;;;;;14.82;4.50;;;;;;;;;;5075919;28;20028;-76
2022/07/18 10:14:13;;;;;;;12.88;4.53;;;;;;;;;;5071251;28;20064;-76
2022/07/18 10:16:40;;;;;;;9.68;5.15;;;;;;;;;;5072788;28;20056;-76
2022/07/18 10:19:06;;;;;;;10.85;4.78;;;;;;;;;;5070902;28;20063;-76
2022/07/18 10:21:32;;;;;;;8.82;4.60;;;;;;;;;;5070688;28;20041;-76
2022/07/18 10:24:00;;;;;;;10.00;4.35;;;;;;;;;;5070874;28;20024;-77
2022/07/18 10:26:27;;;;;;;14.80;5.45;;;;;;;;;;5071911;28;20013;-77
2022/07/18 10:28:56;;;;;;;11.88;5.07;;;;;;;;;;5069647;28;20025;-77
2022/07/18 10:31:22;;;;;;;18.45;5.70;;;;;;;;;;5057407;28;20040;-77
2022/07/18 10:33:49;;;;;;;13.02;5.50;;;;;;;;;;5058030;28;20470;-77
2022/07/18 10:36:16;;;;;;;7.63;5.60;;;;;;;;;;5056590;28;20028;-77
2022/07/18 10:39:00;;;;;;;14.85;6.25;;;;;;;;;;5055071;28;20462;-76
2022/07/18 10:41:26;;;;;;;12.05;5.32;;;;;;;;;;5053208;28;20036;-76
2022/07/18 10:43:52;;;;;;;7.80;5.07;;;;;;;;;;5056652;28;20025;-76
2022/07/18 10:46:18;;;;;;;10.25;5.60;;;;;;;;;;5055941;28;20032;-79
2022/07/18 10:48:45;;;;;;;8.25;5.40;;;;;;;;;;5057866;28;20047;-78
2022/07/18 10:51:11;;;;;;;19.50;5.57;;;;;;;;;;5053767;28;20104;-76
2022/07/18 10:53:56;;;;;;;9.90;5.35;;;;;;;;;;5053899;28;20057;-78
2022/07/18 10:56:28;;;;;;;9.38;5.88;;;;;;;;;;5052214;28;20107;-78
2022/07/18 10:58:58;;;;;;;13.20;6.35;;;;;;;;;;5052623;28;20100;-77
2022/07/18 11:01:25;;;;;;;11.55;5.90;;;;;;;;;;5053738;28;20041;-78
2022/07/18 11:04:11;;;;;;;10.25;6.10;;;;;;;;;;5052036;28;20111;-78
2022/07/18 11:06:56;;;;;;;17.27;6.10;;;;;;;;;;5054161;28;20021;-77
2022/07/18 11:09:40;;;;;;;12.45;6.50;;;;;;;;;;5063629;28;20025;-77
2022/07/18 11:12:21;;;;;;;12.85;6.60;;;;;;;;;;5062617;28;20371;-76
2022/07/18 11:15:06;;;;;;;13.27;5.97;;;;;;;;;;5057192;28;20041;-77
2022/07/18 11:17:32;;;;;;;;;;;;;;;;;;5056642;28;20513;-77
2022/07/18 11:20:22;;;;;;;10.80;6.38;;;;;;;;;;5057583;28;19909;-76
2022/07/18 11:22:49;;;;;;;11.25;6.00;;;;;;;;;;5049995;28;20017;-77
2022/07/18 11:25:17;;;;;;;10.00;5.95;;;;;;;;;;5056875;28;20025;-77
2022/07/18 11:27:44;;;;;;;16.58;8.43;;;;;;;;;;5055736;28;20371;-77
2022/07/18 11:30:10;;;;;;;12.57;7.75;;;;;;;;;;5057923;28;20112;-76
2022/07/18 11:32:36;;;;;;;10.57;5.80;;;;;;;;;;5060767;28;20049;-76
2022/07/18 11:35:05;;;;;;;11.95;7.13;;;;;;;;;;5059324;28;20397;-76
2022/07/18 11:37:31;;;;;;;11.77;6.10;;;;;;;;;;5050898;28;20036;-77
2022/07/18 11:40:04;;;;;;;11.88;6.63;;;;;;;;;;5053112;28;20036;-77
2022/07/18 11:42:39;;;;;;;11.43;6.78;;;;;;;;;;5057324;28;20028;-78
2022/07/18 11:45:10;;;;;;;16.48;7.22;;;;;;;;;;5063538;28;20077;-76
2022/07/18 11:47:39;;;;;;;13.50;6.35;;;;;;;;;;5062914;28;20039;-76
2022/07/18 11:50:06;;;;;;;14.07;6.28;;;;;;;;;;5069556;28;20029;-76
2022/07/18 11:52:32;;;;;;;11.48;5.90;;;;;;;;;;5068772;28;20082;-76
2022/07/18 11:55:00;;;;;;;13.75;6.68;;;;;;;;;;5067175;28;20517;-75
2022/07/18 11:57:29;;;;;;;14.52;6.80;;;;;;;;;;5066248;28;20079;-77
2022/07/18 11:59:55;;;;;;;12.48;6.13;;;;;;;;;;5066431;28;20021;-77
2022/07/18 12:02:21;;;;;;;10.77;6.60;;;;;;;;;;5065147;28;20113;-77
2022/07/18 12:04:48;;;;;;;11.93;6.13;;;;;;;;;;5061439;28;20021;-78
2022/07/18 12:07:14;;;;;;;13.95;6.72;;;;;;;;;;5056446;28;20531;-77
2022/07/18 12:09:41;;;;;;;13.93;6.00;;;;;;;;;;5058897;28;20108;-77
2022/07/18 12:12:14;;;;;;;12.93;6.28;;;;;;;;;;5058303;28;20378;-76
2022/07/18 12:14:40;;;;;;;9.95;6.03;;;;;;;;;;5055633;28;20029;-78
2022/07/18 12:17:07;;;;;;;12.60;6.18;;;;;;;;;;5055344;28;20033;-77
2022/07/18 12:19:35;;;;;;;9.48;6.30;;;;;;;;;;5060243;28;20024;-78
2022/07/18 12:22:05;;;;;;;10.68;6.13;;;;;;;;;;5058988;28;20021;-77
2022/07/18 12:24:33;;;;;;;11.60;5.53;;;;;;;;;;5065747;28;20085;-76
2022/07/18 12:27:16;;;;;;;8.00;4.60;;;;;;;;;;5070614;28;20024;-78
2022/07/18 12:29:55;;;;;;;7.70;5.30;;;;;;;;;;5059917;28;20021;-76
2022/07/18 12:32:24;;;;;;;10.50;5.28;;;;;;;;;;5066978;28;20018;-78
2022/07/18 12:34:57;;;;;;;7.78;4.75;;;;;;;;;;5057699;28;20377;-76
2022/07/18 12:37:24;;;;;;;11.65;5.10;;;;;;;;;;5060178;28;20478;-76
2022/07/18 12:39:55;;;;;;;7.47;4.70;;;;;;;;;;5056251;28;20490;-77
2022/07/18 12:42:29;;;;;;;7.32;3.70;;;;;;;;;;5057175;28;20112;-80
2022/07/18 12:44:55;;;;;;;7.13;4.10;;;;;;;;;;5056703;28;20029;-76
2022/07/18 12:47:21;;;;;;;7.30;4.45;;;;;;;;;;5055822;28;20496;-77
2022/07/18 12:49:47;;;;;;;7.28;4.07;;;;;;;;;;5056101;28;20561;-76
2022/07/18 12:52:13;;;;;;;8.35;4.35;;;;;;;;;;5056264;28;20397;-77
2022/07/18 12:54:39;;;;;;;9.00;4.60;;;;;;;;;;5053731;28;20032;-77
2022/07/18 12:57:04;;;;;;;10.73;4.38;;;;;;;;;;5055277;28;20033;-76
2022/07/18 12:59:30;;;;;;;8.05;4.47;;;;;;;;;;5057479;28;20036;-77
2022/07/18 13:01:57;;;;;;;6.75;4.05;;;;;;;;;;5058672;28;20055;-74
2022/07/18 13:04:23;;;;;;;6.20;4.43;;;;;;;;;;5057429;28;20029;-75
2022/07/18 13:06:49;;;;;;;9.10;4.13;;;;;;;;;;5055692;28;20044;-77
2022/07/18 13:09:15;;;;;;;9.10;3.80;;;;;;;;;;5055277;28;20032;-78
2022/07/18 13:11:46;;;;;;;5.78;4.10;;;;;;;;;;5054544;28;20470;-78
2022/07/18 13:14:12;;;;;;;7.25;3.58;;;;;;;;;;5055266;28;20450;-76
2022/07/18 13:16:38;;;;;;;6.70;4.10;;;;;;;;;;5056792;28;20037;-75
2022/07/18 13:19:04;;;;;;;7.35;4.00;;;;;;;;;;5055497;28;20082;-76
2022/07/18 13:21:29;;;;;;;6.25;3.80;;;;;;;;;;5057102;28;20489;-76
2022/07/18 13:23:55;;;;;;;7.30;3.95;;;;;;;;;;5057373;28;20072;-76
2022/07/18 13:26:21;;;;;;;8.38;4.00;;;;;;;;;;5053787;28;20071;-77
2022/07/18 13:28:47;;;;;;;5.88;4.00;;;;;;;;;;5053994;28;20029;-77
2022/07/18 13:31:13;;;;;;;6.97;3.90;;;;;;;;;;5058907;28;20084;-77
2022/07/18 13:33:39;;;;;;;7.10;3.78;;;;;;;;;;5060125;28;20033;-75
2022/07/18 13:36:05;;;;;;;7.75;3.80;;;;;;;;;;5059827;28;20029;-76
2022/07/18 13:38:31;;;;;;;8.25;3.85;;;;;;;;;;5060525;28;20033;-76
2022/07/18 13:40:57;;;;;;;7.97;3.70;;;;;;;;;;5054378;28;20383;-77
2022/07/18 13:43:23;;;;;;;7.70;3.67;;;;;;;;;;5055396;28;20045;-77
2022/07/18 13:45:49;;;;;;;4.75;3.33;;;;;;;;;;5054955;28;20036;-76
2022/07/18 13:48:15;;;;;;;7.75;4.45;;;;;;;;;;5055258;28;20033;-77
2022/07/18 13:50:41;;;;;;;11.52;4.40;;;;;;;;;;5057150;28;20028;-77
2022/07/18 13:53:08;;;;;;;8.15;3.38;;;;;;;;;;5055870;28;20036;-77
2022/07/18 13:55:33;;;;;;;9.07;4.10;;;;;;;;;;5054912;28;20373;-77
2022/07/18 13:57:59;;;;;;;7.45;4.63;;;;;;;;;;5056738;28;20059;-76
2022/07/18 14:00:25;;;;;;;9.88;4.78;;;;;;;;;;5055140;28;20027;-76
2022/07/18 14:02:51;;;;;;;8.32;4.50;;;;;;;;;;5054394;28;20029;-77
2022/07/18 14:05:17;;;;;;;11.13;5.43;;;;;;;;;;5054633;28;20066;-77
2022/07/18 14:07:44;;;;;;;12.07;5.22;;;;;;;;;;5054760;28;20119;-77
2022/07/18 14:10:10;;;;;;;7.15;4.25;;;;;;;;;;5055066;28;20029;-77
2022/07/18 14:12:36;;;;;;;7.72;4.47;;;;;;;;;;5057214;28;20147;-76
2022/07/18 14:15:02;;;;;;;10.23;4.65;;;;;;;;;;5057295;28;20035;-75
2022/07/18 14:17:30;;;;;;;9.73;4.60;;;;;;;;;;5057614;28;20087;-77
2022/07/18 14:19:56;;;;;;;10.65;4.32;;;;;;;;;;5055789;28;20013;-77
2022/07/18 14:22:22;;;;;;;7.82;4.38;;;;;;;;;;5055283;28;20020;-77
2022/07/18 14:24:48;;;;;;;9.00;4.70;;;;;;;;;;5054978;28;20021;-75
2022/07/18 14:27:14;;;;;;;7.88;4.45;;;;;;;;;;5056074;28;20025;-78
2022/07/18 14:29:40;;;;;;;11.85;6.45;;;;;;;;;;5057328;28;20085;-76
2022/07/18 14:32:06;;;;;;;7.68;4.38;;;;;;;;;;5056158;28;20043;-77
2022/07/18 14:34:33;;;;;;;14.50;5.43;;;;;;;;;;5049474;28;20049;-76
2022/07/18 14:36:59;;;;;;;8.35;5.00;;;;;;;;;;5055692;28;20428;-76